sensor_id;sensor_type;location;lat;lon;timestamp;P1;durP1;ratioP1;P2;durP2;ratioP2
45893;SDS011;31603;51.148;16.932;2023-12-20T00:01:15;54.80;;;20.55;;
45893;SDS011;31603;51.148;16.932;2023-12-20T00:03:45;56.20;;;20.25;;
45893;SDS011;31603;51.148;16.932;2023-12-20T00:06:12;58.28;;;21.13;;
45893;SDS011;31603;51.148;16.932;2023-12-20T00:08:39;53.80;;;19.90;;
45893;SDS011;31603;51.148;16.932;2023-12-20T00:11:07;47.42;;;19.45;;
45893;SDS011;31603;51.148;16.932;2023-12-20T00:13:34;40.67;;;17.45;;
45893;SDS011;31603;51.148;16.932;2023-12-20T00:16:06;44.72;;;17.95;;
45893;SDS011;31603;51.148;16.932;2023-12-20T00:18:36;40.13;;;17.38;;
45893;SDS011;31603;51.148;16.932;2023-12-20T00:21:05;41.15;;;17.55;;
45893;SDS011;31603;51.148;16.932;2023-12-20T00:23:33;43.97;;;17.73;;
45893;SDS011;31603;51.148;16.932;2023-12-20T00:26:00;39.95;;;17.00;;
45893;SDS011;31603;51.148;16.932;2023-12-20T00:28:28;37.33;;;16.40;;
45893;SDS011;31603;51.148;16.932;2023-12-20T00:30:54;35.30;;;16.35;;
45893;SDS011;31603;51.148;16.932;2023-12-20T00:33:24;40.20;;;17.10;;
45893;SDS011;31603;51.148;16.932;2023-12-20T00:35:53;30.88;;;14.98;;
45893;SDS011;31603;51.148;16.932;2023-12-20T00:38:22;38.08;;;16.58;;
45893;SDS011;31603;51.148;16.932;2023-12-20T00:40:51;47.20;;;18.23;;
45893;SDS011;31603;51.148;16.932;2023-12-20T00:43:18;30.83;;;15.13;;
45893;SDS011;31603;51.148;16.932;2023-12-20T00:45:46;35.88;;;16.20;;
45893;SDS011;31603;51.148;16.932;2023-12-20T00:48:13;36.85;;;16.23;;
45893;SDS011;31603;51.148;16.932;2023-12-20T00:50:41;32.78;;;15.50;;
45893;SDS011;31603;51.148;16.932;2023-12-20T00:53:08;30.98;;;15.25;;
45893;SDS011;31603;51.148;16.932;2023-12-20T00:55:36;39.08;;;16.88;;
45893;SDS011;31603;51.148;16.932;2023-12-20T00:58:03;34.65;;;16.05;;
45893;SDS011;31603;51.148;16.932;2023-12-20T01:00:29;48.10;;;17.90;;
45893;SDS011;31603;51.148;16.932;2023-12-20T01:02:55;123.97;;;29.07;;
45893;SDS011;31603;51.148;16.932;2023-12-20T01:05:23;110.72;;;29.35;;
45893;SDS011;31603;51.148;16.932;2023-12-20T01:07:50;21.88;;;11.35;;
45893;SDS011;31603;51.148;16.932;2023-12-20T01:10:17;21.77;;;11.38;;
45893;SDS011;31603;51.148;16.932;2023-12-20T01:12:45;18.42;;;10.10;;
45893;SDS011;31603;51.148;16.932;2023-12-20T01:15:12;18.60;;;10.65;;
45893;SDS011;31603;51.148;16.932;2023-12-20T01:17:39;16.67;;;10.73;;
45893;SDS011;31603;51.148;16.932;2023-12-20T01:20:06;14.02;;;8.73;;
45893;SDS011;31603;51.148;16.932;2023-12-20T01:22:33;16.20;;;9.77;;
45893;SDS011;31603;51.148;16.932;2023-12-20T01:25:01;17.88;;;8.43;;
45893;SDS011;31603;51.148;16.932;2023-12-20T01:27:28;12.32;;;7.30;;
45893;SDS011;31603;51.148;16.932;2023-12-20T01:29:57;15.45;;;8.30;;
45893;SDS011;31603;51.148;16.932;2023-12-20T01:32:24;14.52;;;8.45;;
45893;SDS011;31603;51.148;16.932;2023-12-20T01:34:54;13.85;;;8.18;;
45893;SDS011;31603;51.148;16.932;2023-12-20T01:37:20;9.52;;;5.93;;
45893;SDS011;31603;51.148;16.932;2023-12-20T01:39:50;15.23;;;7.45;;
45893;SDS011;31603;51.148;16.932;2023-12-20T01:42:18;7.90;;;6.00;;
45893;SDS011;31603;51.148;16.932;2023-12-20T01:44:47;7.18;;;4.68;;
45893;SDS011;31603;51.148;16.932;2023-12-20T01:47:16;6.38;;;3.90;;
45893;SDS011;31603;51.148;16.932;2023-12-20T01:49:43;8.45;;;4.95;;
45893;SDS011;31603;51.148;16.932;2023-12-20T01:52:11;6.22;;;4.00;;
45893;SDS011;31603;51.148;16.932;2023-12-20T01:54:39;9.77;;;5.97;;
45893;SDS011;31603;51.148;16.932;2023-12-20T01:57:08;7.15;;;4.93;;
45893;SDS011;31603;51.148;16.932;2023-12-20T01:59:36;8.48;;;5.00;;
45893;SDS011;31603;51.148;16.932;2023-12-20T02:02:06;7.00;;;5.05;;
45893;SDS011;31603;51.148;16.932;2023-12-20T02:04:35;7.93;;;4.68;;
45893;SDS011;31603;51.148;16.932;2023-12-20T02:07:02;5.95;;;3.88;;
45893;SDS011;31603;51.148;16.932;2023-12-20T02:09:30;6.18;;;3.95;;
45893;SDS011;31603;51.148;16.932;2023-12-20T02:11:58;8.43;;;4.65;;
45893;SDS011;31603;51.148;16.932;2023-12-20T02:14:24;6.22;;;4.20;;
45893;SDS011;31603;51.148;16.932;2023-12-20T02:16:53;6.75;;;3.85;;
45893;SDS011;31603;51.148;16.932;2023-12-20T02:19:20;5.80;;;4.32;;
45893;SDS011;31603;51.148;16.932;2023-12-20T02:21:48;8.15;;;4.68;;
45893;SDS011;31603;51.148;16.932;2023-12-20T02:24:15;5.97;;;4.05;;
45893;SDS011;31603;51.148;16.932;2023-12-20T02:26:42;8.25;;;4.68;;
45893;SDS011;31603;51.148;16.932;2023-12-20T02:29:10;7.95;;;3.97;;
45893;SDS011;31603;51.148;16.932;2023-12-20T02:31:37;8.10;;;4.47;;
45893;SDS011;31603;51.148;16.932;2023-12-20T02:34:04;6.20;;;4.10;;
45893;SDS011;31603;51.148;16.932;2023-12-20T02:36:31;7.13;;;4.05;;
45893;SDS011;31603;51.148;16.932;2023-12-20T02:39:00;6.50;;;4.03;;
45893;SDS011;31603;51.148;16.932;2023-12-20T02:41:27;19.15;;;8.18;;
45893;SDS011;31603;51.148;16.932;2023-12-20T02:43:55;7.10;;;4.30;;
45893;SDS011;31603;51.148;16.932;2023-12-20T02:46:22;10.65;;;4.97;;
45893;SDS011;31603;51.148;16.932;2023-12-20T02:48:49;22.48;;;5.05;;
45893;SDS011;31603;51.148;16.932;2023-12-20T02:51:16;19.60;;;5.72;;
45893;SDS011;31603;51.148;16.932;2023-12-20T02:53:44;13.20;;;4.95;;
45893;SDS011;31603;51.148;16.932;2023-12-20T02:56:12;7.68;;;4.40;;
45893;SDS011;31603;51.148;16.932;2023-12-20T02:58:39;75.90;;;24.55;;
45893;SDS011;31603;51.148;16.932;2023-12-20T03:01:13;19.98;;;7.45;;
45893;SDS011;31603;51.148;16.932;2023-12-20T03:03:40;21.35;;;5.15;;
45893;SDS011;31603;51.148;16.932;2023-12-20T03:06:06;49.72;;;15.95;;
45893;SDS011;31603;51.148;16.932;2023-12-20T03:08:33;55.70;;;16.40;;
45893;SDS011;31603;51.148;16.932;2023-12-20T03:11:00;22.50;;;5.07;;
45893;SDS011;31603;51.148;16.932;2023-12-20T03:13:28;20.45;;;5.38;;
45893;SDS011;31603;51.148;16.932;2023-12-20T03:15:55;12.93;;;5.07;;
45893;SDS011;31603;51.148;16.932;2023-12-20T03:18:25;5.43;;;3.67;;
45893;SDS011;31603;51.148;16.932;2023-12-20T03:20:53;21.10;;;5.13;;
45893;SDS011;31603;51.148;16.932;2023-12-20T03:23:19;5.53;;;3.15;;
45893;SDS011;31603;51.148;16.932;2023-12-20T03:25:48;28.70;;;4.47;;
45893;SDS011;31603;51.148;16.932;2023-12-20T03:28:15;5.55;;;3.22;;
45893;SDS011;31603;51.148;16.932;2023-12-20T03:30:43;6.15;;;2.75;;
45893;SDS011;31603;51.148;16.932;2023-12-20T03:33:10;10.65;;;3.25;;
45893;SDS011;31603;51.148;16.932;2023-12-20T03:35:37;6.57;;;2.80;;
45893;SDS011;31603;51.148;16.932;2023-12-20T03:38:04;7.18;;;3.20;;
45893;SDS011;31603;51.148;16.932;2023-12-20T03:40:33;4.18;;;2.17;;
45893;SDS011;31603;51.148;16.932;2023-12-20T03:43:00;4.13;;;1.77;;
45893;SDS011;31603;51.148;16.932;2023-12-20T03:45:27;3.10;;;1.92;;
45893;SDS011;31603;51.148;16.932;2023-12-20T03:47:58;1.92;;;1.50;;
45893;SDS011;31603;51.148;16.932;2023-12-20T03:50:27;1.90;;;1.07;;
45893;SDS011;31603;51.148;16.932;2023-12-20T03:52:54;2.25;;;1.60;;
45893;SDS011;31603;51.148;16.932;2023-12-20T03:55:21;9.10;;;2.70;;
45893;SDS011;31603;51.148;16.932;2023-12-20T03:57:48;7.07;;;2.60;;
45893;SDS011;31603;51.148;16.932;2023-12-20T04:00:15;3.85;;;2.15;;
45893;SDS011;31603;51.148;16.932;2023-12-20T04:02:42;6.65;;;2.65;;
45893;SDS011;31603;51.148;16.932;2023-12-20T04:05:10;5.07;;;1.58;;
45893;SDS011;31603;51.148;16.932;2023-12-20T04:07:37;3.53;;;2.00;;
45893;SDS011;31603;51.148;16.932;2023-12-20T04:10:04;2.63;;;1.88;;
45893;SDS011;31603;51.148;16.932;2023-12-20T04:12:34;6.68;;;2.83;;
45893;SDS011;31603;51.148;16.932;2023-12-20T04:15:01;21.02;;;3.35;;
45893;SDS011;31603;51.148;16.932;2023-12-20T04:17:34;5.97;;;2.22;;
45893;SDS011;31603;51.148;16.932;2023-12-20T04:20:03;3.60;;;2.22;;
45893;SDS011;31603;51.148;16.932;2023-12-20T04:22:34;4.07;;;1.92;;
45893;SDS011;31603;51.148;16.932;2023-12-20T04:25:01;3.33;;;2.13;;
45893;SDS011;31603;51.148;16.932;2023-12-20T04:27:28;25.05;;;4.20;;
45893;SDS011;31603;51.148;16.932;2023-12-20T04:29:54;13.55;;;3.70;;
45893;SDS011;31603;51.148;16.932;2023-12-20T04:32:21;4.28;;;2.00;;
45893;SDS011;31603;51.148;16.932;2023-12-20T04:34:48;11.45;;;3.25;;
45893;SDS011;31603;51.148;16.932;2023-12-20T04:37:15;7.10;;;2.35;;
45893;SDS011;31603;51.148;16.932;2023-12-20T04:39:43;3.25;;;1.75;;
45893;SDS011;31603;51.148;16.932;2023-12-20T04:42:10;3.38;;;1.80;;
45893;SDS011;31603;51.148;16.932;2023-12-20T04:44:36;2.63;;;1.88;;
45893;SDS011;31603;51.148;16.932;2023-12-20T04:47:03;1.55;;;1.38;;
45893;SDS011;31603;51.148;16.932;2023-12-20T04:49:30;2.80;;;1.90;;
45893;SDS011;31603;51.148;16.932;2023-12-20T04:51:57;2.75;;;1.98;;
45893;SDS011;31603;51.148;16.932;2023-12-20T04:54:24;4.68;;;1.67;;
45893;SDS011;31603;51.148;16.932;2023-12-20T04:56:53;4.05;;;2.08;;
45893;SDS011;31603;51.148;16.932;2023-12-20T04:59:19;7.68;;;2.45;;
45893;SDS011;31603;51.148;16.932;2023-12-20T05:01:46;3.28;;;1.90;;
45893;SDS011;31603;51.148;16.932;2023-12-20T05:04:13;8.35;;;1.60;;
45893;SDS011;31603;51.148;16.932;2023-12-20T05:06:40;3.67;;;1.98;;
45893;SDS011;31603;51.148;16.932;2023-12-20T05:09:10;6.05;;;2.60;;
45893;SDS011;31603;51.148;16.932;2023-12-20T05:11:37;5.35;;;2.90;;
45893;SDS011;31603;51.148;16.932;2023-12-20T05:14:05;2.67;;;1.73;;
45893;SDS011;31603;51.148;16.932;2023-12-20T05:16:32;4.35;;;2.33;;
45893;SDS011;31603;51.148;16.932;2023-12-20T05:18:59;5.70;;;2.50;;
45893;SDS011;31603;51.148;16.932;2023-12-20T05:21:27;10.90;;;4.35;;
45893;SDS011;31603;51.148;16.932;2023-12-20T05:23:53;8.60;;;2.80;;
45893;SDS011;31603;51.148;16.932;2023-12-20T05:26:20;4.38;;;2.28;;
45893;SDS011;31603;51.148;16.932;2023-12-20T05:28:47;2.83;;;1.77;;
45893;SDS011;31603;51.148;16.932;2023-12-20T05:31:15;2.72;;;1.60;;
45893;SDS011;31603;51.148;16.932;2023-12-20T05:33:42;5.53;;;2.08;;
45893;SDS011;31603;51.148;16.932;2023-12-20T05:36:09;7.18;;;2.70;;
45893;SDS011;31603;51.148;16.932;2023-12-20T05:38:38;3.42;;;1.90;;
45893;SDS011;31603;51.148;16.932;2023-12-20T05:41:05;4.20;;;2.33;;
45893;SDS011;31603;51.148;16.932;2023-12-20T05:43:33;6.88;;;2.30;;
45893;SDS011;31603;51.148;16.932;2023-12-20T05:46:00;3.22;;;1.83;;
45893;SDS011;31603;51.148;16.932;2023-12-20T05:48:28;8.50;;;3.08;;
45893;SDS011;31603;51.148;16.932;2023-12-20T05:50:55;15.55;;;3.22;;
45893;SDS011;31603;51.148;16.932;2023-12-20T05:53:21;6.75;;;3.15;;
45893;SDS011;31603;51.148;16.932;2023-12-20T05:55:48;12.50;;;3.92;;
45893;SDS011;31603;51.148;16.932;2023-12-20T05:58:15;12.10;;;3.90;;
45893;SDS011;31603;51.148;16.932;2023-12-20T06:00:42;9.32;;;3.13;;
45893;SDS011;31603;51.148;16.932;2023-12-20T06:03:11;9.40;;;4.00;;
45893;SDS011;31603;51.148;16.932;2023-12-20T06:05:39;9.10;;;3.50;;
45893;SDS011;31603;51.148;16.932;2023-12-20T06:08:06;12.80;;;5.40;;
45893;SDS011;31603;51.148;16.932;2023-12-20T06:10:33;24.98;;;9.25;;
45893;SDS011;31603;51.148;16.932;2023-12-20T06:13:00;15.77;;;6.55;;
45893;SDS011;31603;51.148;16.932;2023-12-20T06:15:27;13.65;;;5.90;;
45893;SDS011;31603;51.148;16.932;2023-12-20T06:17:56;16.98;;;8.63;;
45893;SDS011;31603;51.148;16.932;2023-12-20T06:20:23;11.65;;;3.47;;
45893;SDS011;31603;51.148;16.932;2023-12-20T06:22:51;5.18;;;3.05;;
45893;SDS011;31603;51.148;16.932;2023-12-20T06:25:18;8.13;;;3.67;;
45893;SDS011;31603;51.148;16.932;2023-12-20T06:27:45;9.68;;;4.00;;
45893;SDS011;31603;51.148;16.932;2023-12-20T06:30:12;6.05;;;3.25;;
45893;SDS011;31603;51.148;16.932;2023-12-20T06:32:39;5.45;;;3.25;;
45893;SDS011;31603;51.148;16.932;2023-12-20T06:35:08;6.63;;;3.50;;
45893;SDS011;31603;51.148;16.932;2023-12-20T06:37:35;6.70;;;3.28;;
45893;SDS011;31603;51.148;16.932;2023-12-20T06:40:04;7.53;;;3.05;;
45893;SDS011;31603;51.148;16.932;2023-12-20T06:42:31;4.50;;;2.35;;
45893;SDS011;31603;51.148;16.932;2023-12-20T06:44:58;4.25;;;2.45;;
45893;SDS011;31603;51.148;16.932;2023-12-20T06:47:26;3.88;;;2.35;;
45893;SDS011;31603;51.148;16.932;2023-12-20T06:49:53;6.07;;;2.80;;
45893;SDS011;31603;51.148;16.932;2023-12-20T06:52:25;5.25;;;2.83;;
45893;SDS011;31603;51.148;16.932;2023-12-20T06:54:52;6.40;;;3.70;;
45893;SDS011;31603;51.148;16.932;2023-12-20T06:57:20;4.50;;;1.90;;
45893;SDS011;31603;51.148;16.932;2023-12-20T06:59:47;5.05;;;2.63;;
45893;SDS011;31603;51.148;16.932;2023-12-20T07:02:14;7.18;;;3.10;;
45893;SDS011;31603;51.148;16.932;2023-12-20T07:04:41;6.70;;;2.15;;
45893;SDS011;31603;51.148;16.932;2023-12-20T07:07:10;5.18;;;2.65;;
45893;SDS011;31603;51.148;16.932;2023-12-20T07:09:37;6.95;;;3.03;;
45893;SDS011;31603;51.148;16.932;2023-12-20T07:12:10;8.07;;;3.25;;
45893;SDS011;31603;51.148;16.932;2023-12-20T07:14:41;7.78;;;3.25;;
45893;SDS011;31603;51.148;16.932;2023-12-20T07:17:08;5.90;;;3.05;;
45893;SDS011;31603;51.148;16.932;2023-12-20T07:19:38;8.52;;;3.13;;
45893;SDS011;31603;51.148;16.932;2023-12-20T07:22:05;5.72;;;2.70;;
45893;SDS011;31603;51.148;16.932;2023-12-20T07:24:32;8.02;;;3.35;;
45893;SDS011;31603;51.148;16.932;2023-12-20T07:27:00;6.75;;;3.10;;
45893;SDS011;31603;51.148;16.932;2023-12-20T07:29:27;4.95;;;2.30;;
45893;SDS011;31603;51.148;16.932;2023-12-20T07:31:55;8.48;;;2.90;;
45893;SDS011;31603;51.148;16.932;2023-12-20T07:34:22;6.72;;;2.75;;
45893;SDS011;31603;51.148;16.932;2023-12-20T07:36:49;6.30;;;2.58;;
45893;SDS011;31603;51.148;16.932;2023-12-20T07:39:15;6.40;;;2.53;;
45893;SDS011;31603;51.148;16.932;2023-12-20T07:41:42;4.35;;;2.08;;
45893;SDS011;31603;51.148;16.932;2023-12-20T07:44:09;5.60;;;2.35;;
45893;SDS011;31603;51.148;16.932;2023-12-20T07:46:35;5.38;;;1.92;;
45893;SDS011;31603;51.148;16.932;2023-12-20T07:49:04;7.13;;;2.95;;
45893;SDS011;31603;51.148;16.932;2023-12-20T07:51:35;4.45;;;1.90;;
45893;SDS011;31603;51.148;16.932;2023-12-20T07:54:02;5.00;;;2.15;;
45893;SDS011;31603;51.148;16.932;2023-12-20T07:56:29;8.25;;;2.47;;
45893;SDS011;31603;51.148;16.932;2023-12-20T07:58:56;8.13;;;2.85;;
45893;SDS011;31603;51.148;16.932;2023-12-20T08:01:23;7.53;;;2.55;;
45893;SDS011;31603;51.148;16.932;2023-12-20T08:03:50;5.60;;;2.17;;
45893;SDS011;31603;51.148;16.932;2023-12-20T08:06:18;5.30;;;2.45;;
45893;SDS011;31603;51.148;16.932;2023-12-20T08:08:45;7.43;;;2.75;;
45893;SDS011;31603;51.148;16.932;2023-12-20T08:11:11;5.63;;;2.60;;
45893;SDS011;31603;51.148;16.932;2023-12-20T08:13:38;7.57;;;2.33;;
45893;SDS011;31603;51.148;16.932;2023-12-20T08:16:05;7.63;;;2.90;;
45893;SDS011;31603;51.148;16.932;2023-12-20T08:18:32;4.32;;;1.70;;
45893;SDS011;31603;51.148;16.932;2023-12-20T08:20:59;5.95;;;2.40;;
45893;SDS011;31603;51.148;16.932;2023-12-20T08:23:27;6.47;;;2.63;;
45893;SDS011;31603;51.148;16.932;2023-12-20T08:25:57;7.43;;;2.83;;
45893;SDS011;31603;51.148;16.932;2023-12-20T08:28:23;4.47;;;2.25;;
45893;SDS011;31603;51.148;16.932;2023-12-20T08:30:50;5.47;;;2.08;;
45893;SDS011;31603;51.148;16.932;2023-12-20T08:33:18;4.35;;;1.88;;
45893;SDS011;31603;51.148;16.932;2023-12-20T08:35:45;6.00;;;2.78;;
45893;SDS011;31603;51.148;16.932;2023-12-20T08:38:12;7.75;;;2.50;;
45893;SDS011;31603;51.148;16.932;2023-12-20T08:40:41;8.23;;;2.97;;
45893;SDS011;31603;51.148;16.932;2023-12-20T08:43:10;6.93;;;2.60;;
45893;SDS011;31603;51.148;16.932;2023-12-20T08:45:37;4.70;;;2.42;;
45893;SDS011;31603;51.148;16.932;2023-12-20T08:48:05;4.43;;;2.08;;
45893;SDS011;31603;51.148;16.932;2023-12-20T08:50:32;4.53;;;2.50;;
45893;SDS011;31603;51.148;16.932;2023-12-20T08:52:59;4.57;;;2.05;;
45893;SDS011;31603;51.148;16.932;2023-12-20T08:55:26;6.90;;;2.95;;
45893;SDS011;31603;51.148;16.932;2023-12-20T08:57:55;7.25;;;3.25;;
45893;SDS011;31603;51.148;16.932;2023-12-20T09:00:22;5.95;;;2.55;;
45893;SDS011;31603;51.148;16.932;2023-12-20T09:02:49;5.03;;;2.70;;
45893;SDS011;31603;51.148;16.932;2023-12-20T09:05:16;6.03;;;3.03;;
45893;SDS011;31603;51.148;16.932;2023-12-20T09:07:43;6.63;;;3.15;;
45893;SDS011;31603;51.148;16.932;2023-12-20T09:10:09;5.50;;;2.63;;
45893;SDS011;31603;51.148;16.932;2023-12-20T09:12:36;6.97;;;2.95;;
45893;SDS011;31603;51.148;16.932;2023-12-20T09:15:06;6.07;;;2.42;;
45893;SDS011;31603;51.148;16.932;2023-12-20T09:17:33;5.50;;;2.60;;
45893;SDS011;31603;51.148;16.932;2023-12-20T09:20:00;7.32;;;3.17;;
45893;SDS011;31603;51.148;16.932;2023-12-20T09:22:27;6.25;;;2.83;;
45893;SDS011;31603;51.148;16.932;2023-12-20T09:24:54;7.53;;;3.40;;
45893;SDS011;31603;51.148;16.932;2023-12-20T09:27:20;5.03;;;2.67;;
45893;SDS011;31603;51.148;16.932;2023-12-20T09:29:47;4.78;;;2.80;;
45893;SDS011;31603;51.148;16.932;2023-12-20T09:32:16;6.78;;;2.95;;
45893;SDS011;31603;51.148;16.932;2023-12-20T09:34:42;9.27;;;3.47;;
45893;SDS011;31603;51.148;16.932;2023-12-20T09:37:09;6.68;;;2.85;;
45893;SDS011;31603;51.148;16.932;2023-12-20T09:39:36;4.97;;;2.67;;
45893;SDS011;31603;51.148;16.932;2023-12-20T09:42:03;10.02;;;3.00;;
45893;SDS011;31603;51.148;16.932;2023-12-20T09:44:31;5.50;;;2.80;;
45893;SDS011;31603;51.148;16.932;2023-12-20T09:46:59;11.50;;;3.30;;
45893;SDS011;31603;51.148;16.932;2023-12-20T09:49:30;5.82;;;2.85;;
45893;SDS011;31603;51.148;16.932;2023-12-20T09:51:59;6.75;;;3.08;;
45893;SDS011;31603;51.148;16.932;2023-12-20T09:54:27;5.22;;;2.55;;
45893;SDS011;31603;51.148;16.932;2023-12-20T09:56:55;6.38;;;2.53;;
45893;SDS011;31603;51.148;16.932;2023-12-20T09:59:24;7.35;;;3.15;;
45893;SDS011;31603;51.148;16.932;2023-12-20T10:01:50;6.32;;;2.65;;
45893;SDS011;31603;51.148;16.932;2023-12-20T10:04:21;5.45;;;2.85;;
45893;SDS011;31603;51.148;16.932;2023-12-20T10:06:49;7.47;;;3.08;;
45893;SDS011;31603;51.148;16.932;2023-12-20T10:09:17;7.00;;;3.70;;
45893;SDS011;31603;51.148;16.932;2023-12-20T10:11:44;6.80;;;3.50;;
45893;SDS011;31603;51.148;16.932;2023-12-20T10:14:11;10.27;;;3.60;;
45893;SDS011;31603;51.148;16.932;2023-12-20T10:16:39;6.47;;;3.22;;
45893;SDS011;31603;51.148;16.932;2023-12-20T10:19:07;7.15;;;3.70;;
45893;SDS011;31603;51.148;16.932;2023-12-20T10:21:34;9.93;;;3.88;;
45893;SDS011;31603;51.148;16.932;2023-12-20T10:24:02;4.75;;;3.13;;
45893;SDS011;31603;51.148;16.932;2023-12-20T10:26:29;6.53;;;2.95;;
45893;SDS011;31603;51.148;16.932;2023-12-20T10:28:56;6.50;;;2.78;;
45893;SDS011;31603;51.148;16.932;2023-12-20T10:31:29;9.85;;;3.78;;
45893;SDS011;31603;51.148;16.932;2023-12-20T10:33:57;10.55;;;2.67;;
45893;SDS011;31603;51.148;16.932;2023-12-20T10:36:25;9.68;;;2.92;;
45893;SDS011;31603;51.148;16.932;2023-12-20T10:38:54;8.70;;;3.22;;
45893;SDS011;31603;51.148;16.932;2023-12-20T10:41:26;7.00;;;2.45;;
45893;SDS011;31603;51.148;16.932;2023-12-20T10:43:55;4.32;;;1.88;;
45893;SDS011;31603;51.148;16.932;2023-12-20T10:46:24;5.90;;;2.22;;
45893;SDS011;31603;51.148;16.932;2023-12-20T10:48:53;11.52;;;3.50;;
45893;SDS011;31603;51.148;16.932;2023-12-20T10:51:20;11.85;;;3.40;;
45893;SDS011;31603;51.148;16.932;2023-12-20T10:53:49;15.35;;;3.28;;
45893;SDS011;31603;51.148;16.932;2023-12-20T10:56:19;21.77;;;3.65;;
45893;SDS011;31603;51.148;16.932;2023-12-20T10:58:49;29.83;;;4.85;;
45893;SDS011;31603;51.148;16.932;2023-12-20T11:01:17;23.13;;;3.45;;
45893;SDS011;31603;51.148;16.932;2023-12-20T11:03:47;17.10;;;4.05;;
45893;SDS011;31603;51.148;16.932;2023-12-20T11:06:20;17.90;;;4.13;;
45893;SDS011;31603;51.148;16.932;2023-12-20T11:08:58;16.63;;;3.47;;
45893;SDS011;31603;51.148;16.932;2023-12-20T11:11:35;21.63;;;4.13;;
45893;SDS011;31603;51.148;16.932;2023-12-20T11:14:11;27.00;;;3.63;;
45893;SDS011;31603;51.148;16.932;2023-12-20T11:16:47;28.08;;;4.22;;
45893;SDS011;31603;51.148;16.932;2023-12-20T11:19:13;33.75;;;3.92;;
45893;SDS011;31603;51.148;16.932;2023-12-20T11:21:42;35.17;;;3.47;;
45893;SDS011;31603;51.148;16.932;2023-12-20T11:24:09;42.05;;;4.10;;
45893;SDS011;31603;51.148;16.932;2023-12-20T11:26:36;44.85;;;4.32;;
45893;SDS011;31603;51.148;16.932;2023-12-20T11:32:00;38.50;;;3.97;;
45893;SDS011;31603;51.148;16.932;2023-12-20T11:34:28;35.95;;;2.90;;
45893;SDS011;31603;51.148;16.932;2023-12-20T11:36:57;28.75;;;3.65;;
45893;SDS011;31603;51.148;16.932;2023-12-20T11:39:25;20.77;;;3.40;;
45893;SDS011;31603;51.148;16.932;2023-12-20T11:41:54;15.63;;;2.80;;
45893;SDS011;31603;51.148;16.932;2023-12-20T11:44:21;13.82;;;2.63;;
45893;SDS011;31603;51.148;16.932;2023-12-20T11:46:49;15.45;;;2.92;;
45893;SDS011;31603;51.148;16.932;2023-12-20T11:49:16;12.00;;;2.65;;
45893;SDS011;31603;51.148;16.932;2023-12-20T11:51:43;14.93;;;3.00;;
45893;SDS011;31603;51.148;16.932;2023-12-20T11:54:10;9.27;;;2.30;;
45893;SDS011;31603;51.148;16.932;2023-12-20T11:56:37;11.10;;;3.05;;
45893;SDS011;31603;51.148;16.932;2023-12-20T11:59:04;9.48;;;2.70;;
45893;SDS011;31603;51.148;16.932;2023-12-20T12:01:31;14.45;;;3.20;;
45893;SDS011;31603;51.148;16.932;2023-12-20T12:04:05;7.20;;;2.15;;
45893;SDS011;31603;51.148;16.932;2023-12-20T12:06:32;9.35;;;2.70;;
45893;SDS011;31603;51.148;16.932;2023-12-20T12:09:01;10.05;;;2.90;;
45893;SDS011;31603;51.148;16.932;2023-12-20T12:11:29;8.05;;;2.38;;
45893;SDS011;31603;51.148;16.932;2023-12-20T12:13:56;6.80;;;2.17;;
45893;SDS011;31603;51.148;16.932;2023-12-20T12:16:24;8.98;;;2.97;;
45893;SDS011;31603;51.148;16.932;2023-12-20T12:18:55;7.90;;;2.40;;
45893;SDS011;31603;51.148;16.932;2023-12-20T12:21:24;7.88;;;2.63;;
45893;SDS011;31603;51.148;16.932;2023-12-20T12:23:51;7.60;;;2.50;;
45893;SDS011;31603;51.148;16.932;2023-12-20T12:26:18;9.57;;;2.83;;
45893;SDS011;31603;51.148;16.932;2023-12-20T12:28:45;11.43;;;3.05;;
45893;SDS011;31603;51.148;16.932;2023-12-20T12:31:15;7.50;;;2.70;;
45893;SDS011;31603;51.148;16.932;2023-12-20T12:33:42;7.05;;;2.35;;
45893;SDS011;31603;51.148;16.932;2023-12-20T12:36:09;8.45;;;2.80;;
45893;SDS011;31603;51.148;16.932;2023-12-20T12:38:38;5.55;;;1.83;;
45893;SDS011;31603;51.148;16.932;2023-12-20T12:41:12;8.27;;;2.80;;
45893;SDS011;31603;51.148;16.932;2023-12-20T12:43:40;11.82;;;3.05;;
45893;SDS011;31603;51.148;16.932;2023-12-20T12:46:07;6.88;;;2.28;;
45893;SDS011;31603;51.148;16.932;2023-12-20T12:48:33;7.32;;;3.15;;
45893;SDS011;31603;51.148;16.932;2023-12-20T12:51:00;6.43;;;2.35;;
45893;SDS011;31603;51.148;16.932;2023-12-20T12:53:27;4.68;;;1.80;;
45893;SDS011;31603;51.148;16.932;2023-12-20T12:55:55;5.47;;;2.20;;
45893;SDS011;31603;51.148;16.932;2023-12-20T12:58:22;6.57;;;2.35;;
45893;SDS011;31603;51.148;16.932;2023-12-20T13:00:50;6.07;;;2.70;;
45893;SDS011;31603;51.148;16.932;2023-12-20T13:03:20;7.32;;;2.17;;
45893;SDS011;31603;51.148;16.932;2023-12-20T13:05:47;8.48;;;2.67;;
45893;SDS011;31603;51.148;16.932;2023-12-20T13:08:13;9.20;;;2.40;;
45893;SDS011;31603;51.148;16.932;2023-12-20T13:10:40;7.53;;;2.75;;
45893;SDS011;31603;51.148;16.932;2023-12-20T13:13:09;8.13;;;2.60;;
45893;SDS011;31603;51.148;16.932;2023-12-20T13:15:35;13.60;;;3.10;;
45893;SDS011;31603;51.148;16.932;2023-12-20T13:18:02;17.48;;;3.75;;
45893;SDS011;31603;51.148;16.932;2023-12-20T13:20:31;15.80;;;3.25;;
45893;SDS011;31603;51.148;16.932;2023-12-20T13:22:58;12.40;;;2.83;;
45893;SDS011;31603;51.148;16.932;2023-12-20T13:25:25;12.10;;;2.92;;
45893;SDS011;31603;51.148;16.932;2023-12-20T13:27:53;14.73;;;2.80;;
45893;SDS011;31603;51.148;16.932;2023-12-20T13:30:21;12.80;;;2.70;;
45893;SDS011;31603;51.148;16.932;2023-12-20T13:32:48;14.68;;;3.05;;
45893;SDS011;31603;51.148;16.932;2023-12-20T13:35:15;21.80;;;3.35;;
45893;SDS011;31603;51.148;16.932;2023-12-20T13:37:43;29.15;;;4.85;;
45893;SDS011;31603;51.148;16.932;2023-12-20T13:40:11;17.77;;;2.97;;
45893;SDS011;31603;51.148;16.932;2023-12-20T13:42:37;15.77;;;2.60;;
45893;SDS011;31603;51.148;16.932;2023-12-20T13:45:05;29.10;;;3.78;;
45893;SDS011;31603;51.148;16.932;2023-12-20T13:47:34;20.98;;;3.47;;
45893;SDS011;31603;51.148;16.932;2023-12-20T13:50:03;19.40;;;3.50;;
45893;SDS011;31603;51.148;16.932;2023-12-20T13:52:30;22.40;;;3.00;;
45893;SDS011;31603;51.148;16.932;2023-12-20T13:54:57;19.33;;;2.65;;
45893;SDS011;31603;51.148;16.932;2023-12-20T13:57:24;23.55;;;3.67;;
45893;SDS011;31603;51.148;16.932;2023-12-20T13:59:51;25.10;;;3.78;;
45893;SDS011;31603;51.148;16.932;2023-12-20T14:02:17;18.25;;;2.85;;
45893;SDS011;31603;51.148;16.932;2023-12-20T14:04:45;24.77;;;3.92;;
45893;SDS011;31603;51.148;16.932;2023-12-20T14:07:12;17.70;;;3.03;;
45893;SDS011;31603;51.148;16.932;2023-12-20T14:09:39;18.67;;;3.17;;
45893;SDS011;31603;51.148;16.932;2023-12-20T14:12:10;19.90;;;3.53;;
45893;SDS011;31603;51.148;16.932;2023-12-20T14:14:36;18.48;;;3.28;;
45893;SDS011;31603;51.148;16.932;2023-12-20T14:17:03;18.65;;;3.03;;
45893;SDS011;31603;51.148;16.932;2023-12-20T14:19:31;17.67;;;3.53;;
45893;SDS011;31603;51.148;16.932;2023-12-20T14:21:59;20.58;;;3.53;;
45893;SDS011;31603;51.148;16.932;2023-12-20T14:24:28;17.38;;;3.47;;
45893;SDS011;31603;51.148;16.932;2023-12-20T14:26:57;17.58;;;3.17;;
45893;SDS011;31603;51.148;16.932;2023-12-20T14:29:24;19.40;;;3.58;;
45893;SDS011;31603;51.148;16.932;2023-12-20T14:31:52;20.42;;;4.07;;
45893;SDS011;31603;51.148;16.932;2023-12-20T14:34:19;17.90;;;3.45;;